sensor_id;sensor_type;location;lat;lon;timestamp;temperature;humidity
18339;DHT22;9295;44.484;11.240;2023-07-13T00:01:16;28.50;99.90
18339;DHT22;9295;44.484;11.240;2023-07-13T00:03:47;28.40;99.90
18339;DHT22;9295;44.484;11.240;2023-07-13T00:06:15;28.40;99.90
18339;DHT22;9295;44.484;11.240;2023-07-13T00:08:44;28.30;99.90
18339;DHT22;9295;44.484;11.240;2023-07-13T00:11:13;28.30;99.90
18339;DHT22;9295;44.484;11.240;2023-07-13T00:13:42;28.20;99.90
18339;DHT22;9295;44.484;11.240;2023-07-13T00:16:11;28.20;99.90
18339;DHT22;9295;44.484;11.240;2023-07-13T00:18:42;28.20;99.90
18339;DHT22;9295;44.484;11.240;2023-07-13T00:21:11;28.20;99.90
18339;DHT22;9295;44.484;11.240;2023-07-13T00:23:41;28.10;99.90
18339;DHT22;9295;44.484;11.240;2023-07-13T00:26:12;28.10;99.90
18339;DHT22;9295;44.484;11.240;2023-07-13T00:28:41;28.00;99.90
18339;DHT22;9295;44.484;11.240;2023-07-13T00:31:11;28.00;99.90
18339;DHT22;9295;44.484;11.240;2023-07-13T00:33:43;27.90;99.90
18339;DHT22;9295;44.484;11.240;2023-07-13T00:36:12;27.90;99.90
18339;DHT22;9295;44.484;11.240;2023-07-13T00:38:41;27.90;99.90
18339;DHT22;9295;44.484;11.240;2023-07-13T00:41:10;27.90;99.90
18339;DHT22;9295;44.484;11.240;2023-07-13T00:43:40;27.90;99.90
18339;DHT22;9295;44.484;11.240;2023-07-13T00:46:22;27.80;99.90
18339;DHT22;9295;44.484;11.240;2023-07-13T00:48:54;27.90;99.90
18339;DHT22;9295;44.484;11.240;2023-07-13T00:51:28;27.90;99.90
18339;DHT22;9295;44.484;11.240;2023-07-13T00:54:01;27.80;99.90
18339;DHT22;9295;44.484;11.240;2023-07-13T00:56:32;27.80;99.90
18339;DHT22;9295;44.484;11.240;2023-07-13T00:59:03;27.80;99.90
18339;DHT22;9295;44.484;11.240;2023-07-13T01:01:34;27.80;99.90
18339;DHT22;9295;44.484;11.240;2023-07-13T01:04:05;27.70;99.90
18339;DHT22;9295;44.484;11.240;2023-07-13T01:06:39;27.70;99.90
18339;DHT22;9295;44.484;11.240;2023-07-13T01:09:08;27.70;99.90
18339;DHT22;9295;44.484;11.240;2023-07-13T01:11:38;27.70;99.90
18339;DHT22;9295;44.484;11.240;2023-07-13T01:14:07;27.50;99.90
18339;DHT22;9295;44.484;11.240;2023-07-13T01:16:37;27.60;99.90
18339;DHT22;9295;44.484;11.240;2023-07-13T01:19:16;27.60;99.90
18339;DHT22;9295;44.484;11.240;2023-07-13T01:21:52;27.50;99.90
18339;DHT22;9295;44.484;11.240;2023-07-13T01:24:21;27.50;99.90
18339;DHT22;9295;44.484;11.240;2023-07-13T01:26:49;27.50;99.90
18339;DHT22;9295;44.484;11.240;2023-07-13T01:29:18;27.50;99.90
18339;DHT22;9295;44.484;11.240;2023-07-13T01:31:47;27.50;99.90
18339;DHT22;9295;44.484;11.240;2023-07-13T01:34:17;27.40;99.90
18339;DHT22;9295;44.484;11.240;2023-07-13T01:36:45;27.30;99.90
18339;DHT22;9295;44.484;11.240;2023-07-13T01:39:15;27.20;99.90
18339;DHT22;9295;44.484;11.240;2023-07-13T01:41:44;27.30;99.90
18339;DHT22;9295;44.484;11.240;2023-07-13T01:44:13;27.30;99.90
18339;DHT22;9295;44.484;11.240;2023-07-13T01:46:41;27.20;99.90
18339;DHT22;9295;44.484;11.240;2023-07-13T01:49:10;27.20;99.90
18339;DHT22;9295;44.484;11.240;2023-07-13T01:51:39;27.30;99.90
18339;DHT22;9295;44.484;11.240;2023-07-13T01:54:08;27.30;99.90
18339;DHT22;9295;44.484;11.240;2023-07-13T01:56:37;27.30;99.90
18339;DHT22;9295;44.484;11.240;2023-07-13T01:59:07;27.30;99.90
18339;DHT22;9295;44.484;11.240;2023-07-13T02:01:35;27.40;99.90
18339;DHT22;9295;44.484;11.240;2023-07-13T02:04:04;27.40;99.90
18339;DHT22;9295;44.484;11.240;2023-07-13T02:06:33;27.40;99.90
18339;DHT22;9295;44.484;11.240;2023-07-13T02:09:02;27.40;99.90
18339;DHT22;9295;44.484;11.240;2023-07-13T02:11:30;27.40;99.90
18339;DHT22;9295;44.484;11.240;2023-07-13T02:14:03;27.40;99.90
18339;DHT22;9295;44.484;11.240;2023-07-13T02:16:31;27.40;99.90
18339;DHT22;9295;44.484;11.240;2023-07-13T02:19:00;27.50;99.90
18339;DHT22;9295;44.484;11.240;2023-07-13T02:21:29;27.40;99.90
18339;DHT22;9295;44.484;11.240;2023-07-13T02:23:58;27.40;99.90
18339;DHT22;9295;44.484;11.240;2023-07-13T02:26:27;27.40;99.90
18339;DHT22;9295;44.484;11.240;2023-07-13T02:28:55;27.40;99.90
18339;DHT22;9295;44.484;11.240;2023-07-13T02:31:25;27.30;99.90
18339;DHT22;9295;44.484;11.240;2023-07-13T02:33:54;27.40;99.90
18339;DHT22;9295;44.484;11.240;2023-07-13T02:36:23;27.30;99.90
18339;DHT22;9295;44.484;11.240;2023-07-13T02:38:51;27.30;99.90
18339;DHT22;9295;44.484;11.240;2023-07-13T02:41:20;27.30;99.90
18339;DHT22;9295;44.484;11.240;2023-07-13T02:43:50;27.30;99.90
18339;DHT22;9295;44.484;11.240;2023-07-13T02:46:20;27.30;99.90
18339;DHT22;9295;44.484;11.240;2023-07-13T02:48:50;27.30;99.90
18339;DHT22;9295;44.484;11.240;2023-07-13T02:51:20;27.30;99.90
18339;DHT22;9295;44.484;11.240;2023-07-13T02:53:49;27.30;99.90
18339;DHT22;9295;44.484;11.240;2023-07-13T02:56:18;27.30;99.90
18339;DHT22;9295;44.484;11.240;2023-07-13T02:58:47;27.20;99.90
18339;DHT22;9295;44.484;11.240;2023-07-13T03:01:16;27.20;99.90
18339;DHT22;9295;44.484;11.240;2023-07-13T03:03:46;27.20;99.90
18339;DHT22;9295;44.484;11.240;2023-07-13T03:06:17;27.10;99.90
18339;DHT22;9295;44.484;11.240;2023-07-13T03:08:50;27.00;99.90
18339;DHT22;9295;44.484;11.240;2023-07-13T03:11:20;27.00;99.90
18339;DHT22;9295;44.484;11.240;2023-07-13T03:14:02;27.00;99.90
18339;DHT22;9295;44.484;11.240;2023-07-13T03:16:34;26.90;99.90
18339;DHT22;9295;44.484;11.240;2023-07-13T03:19:03;26.80;99.90
18339;DHT22;9295;44.484;11.240;2023-07-13T03:21:33;26.70;99.90
18339;DHT22;9295;44.484;11.240;2023-07-13T03:24:02;26.60;99.90
18339;DHT22;9295;44.484;11.240;2023-07-13T03:26:32;26.50;99.90
18339;DHT22;9295;44.484;11.240;2023-07-13T03:29:03;26.30;99.90
18339;DHT22;9295;44.484;11.240;2023-07-13T03:31:34;26.40;99.90
18339;DHT22;9295;44.484;11.240;2023-07-13T03:34:02;26.30;99.90
18339;DHT22;9295;44.484;11.240;2023-07-13T03:36:33;26.40;99.90
18339;DHT22;9295;44.484;11.240;2023-07-13T03:39:05;26.50;99.90
18339;DHT22;9295;44.484;11.240;2023-07-13T03:41:44;26.60;99.90
18339;DHT22;9295;44.484;11.240;2023-07-13T03:44:13;26.60;99.90
18339;DHT22;9295;44.484;11.240;2023-07-13T03:46:42;26.70;99.90
18339;DHT22;9295;44.484;11.240;2023-07-13T03:49:11;26.60;99.90
18339;DHT22;9295;44.484;11.240;2023-07-13T03:51:41;26.50;99.90
18339;DHT22;9295;44.484;11.240;2023-07-13T03:54:09;26.50;99.90
18339;DHT22;9295;44.484;11.240;2023-07-13T03:56:38;26.40;99.90
18339;DHT22;9295;44.484;11.240;2023-07-13T03:59:08;26.30;99.90
18339;DHT22;9295;44.484;11.240;2023-07-13T04:01:37;26.40;99.90
18339;DHT22;9295;44.484;11.240;2023-07-13T04:04:06;26.50;99.90
18339;DHT22;9295;44.484;11.240;2023-07-13T04:06:35;26.60;99.90
18339;DHT22;9295;44.484;11.240;2023-07-13T04:09:05;26.60;99.90
18339;DHT22;9295;44.484;11.240;2023-07-13T04:11:34;26.60;99.90
18339;DHT22;9295;44.484;11.240;2023-07-13T04:14:05;26.60;99.90
18339;DHT22;9295;44.484;11.240;2023-07-13T04:16:34;26.70;99.90
18339;DHT22;9295;44.484;11.240;2023-07-13T04:19:03;26.70;99.90
18339;DHT22;9295;44.484;11.240;2023-07-13T04:21:32;26.70;99.90
18339;DHT22;9295;44.484;11.240;2023-07-13T04:24:00;26.80;99.90
18339;DHT22;9295;44.484;11.240;2023-07-13T04:26:31;26.80;99.90
18339;DHT22;9295;44.484;11.240;2023-07-13T04:29:03;26.90;99.90
18339;DHT22;9295;44.484;11.240;2023-07-13T04:31:32;26.90;99.90
18339;DHT22;9295;44.484;11.240;2023-07-13T04:34:01;27.10;99.90
18339;DHT22;9295;44.484;11.240;2023-07-13T04:36:33;27.20;99.90
18339;DHT22;9295;44.484;11.240;2023-07-13T04:39:07;27.30;99.90
18339;DHT22;9295;44.484;11.240;2023-07-13T04:41:37;27.30;99.90
18339;DHT22;9295;44.484;11.240;2023-07-13T04:44:06;27.40;99.90
18339;DHT22;9295;44.484;11.240;2023-07-13T04:46:34;27.50;99.90
18339;DHT22;9295;44.484;11.240;2023-07-13T04:49:04;27.60;99.90
18339;DHT22;9295;44.484;11.240;2023-07-13T04:51:33;27.70;99.90
18339;DHT22;9295;44.484;11.240;2023-07-13T04:54:02;27.80;99.90
18339;DHT22;9295;44.484;11.240;2023-07-13T04:56:33;27.90;99.90
18339;DHT22;9295;44.484;11.240;2023-07-13T04:59:02;27.90;99.90
18339;DHT22;9295;44.484;11.240;2023-07-13T05:01:31;27.90;99.90
18339;DHT22;9295;44.484;11.240;2023-07-13T05:04:00;27.90;99.90
18339;DHT22;9295;44.484;11.240;2023-07-13T05:06:28;27.80;99.90
18339;DHT22;9295;44.484;11.240;2023-07-13T05:08:59;27.80;99.90
18339;DHT22;9295;44.484;11.240;2023-07-13T05:11:28;27.70;99.90
18339;DHT22;9295;44.484;11.240;2023-07-13T05:13:56;27.80;99.90
18339;DHT22;9295;44.484;11.240;2023-07-13T05:16:26;27.90;99.90
18339;DHT22;9295;44.484;11.240;2023-07-13T05:18:55;28.00;99.90
18339;DHT22;9295;44.484;11.240;2023-07-13T05:21:23;28.10;99.90
18339;DHT22;9295;44.484;11.240;2023-07-13T05:23:52;28.10;99.90
18339;DHT22;9295;44.484;11.240;2023-07-13T05:26:21;28.00;99.90
18339;DHT22;9295;44.484;11.240;2023-07-13T05:28:50;27.80;99.90
18339;DHT22;9295;44.484;11.240;2023-07-13T05:31:18;27.80;99.90
18339;DHT22;9295;44.484;11.240;2023-07-13T05:33:50;27.80;99.90
18339;DHT22;9295;44.484;11.240;2023-07-13T05:36:19;27.70;99.90
18339;DHT22;9295;44.484;11.240;2023-07-13T05:38:47;27.80;99.90
18339;DHT22;9295;44.484;11.240;2023-07-13T05:41:15;27.90;99.90
18339;DHT22;9295;44.484;11.240;2023-07-13T05:43:44;28.00;99.90
18339;DHT22;9295;44.484;11.240;2023-07-13T05:46:12;28.20;99.90
18339;DHT22;9295;44.484;11.240;2023-07-13T05:48:41;28.20;99.90
18339;DHT22;9295;44.484;11.240;2023-07-13T05:51:11;28.20;99.90
18339;DHT22;9295;44.484;11.240;2023-07-13T05:53:39;28.20;99.90
18339;DHT22;9295;44.484;11.240;2023-07-13T05:56:08;28.20;99.90
18339;DHT22;9295;44.484;11.240;2023-07-13T05:58:39;28.10;99.90
18339;DHT22;9295;44.484;11.240;2023-07-13T06:01:10;27.90;99.90
18339;DHT22;9295;44.484;11.240;2023-07-13T06:03:40;27.70;99.90
18339;DHT22;9295;44.484;11.240;2023-07-13T06:06:11;27.70;99.90
18339;DHT22;9295;44.484;11.240;2023-07-13T06:08:40;27.70;99.90
18339;DHT22;9295;44.484;11.240;2023-07-13T06:11:13;27.90;99.90
18339;DHT22;9295;44.484;11.240;2023-07-13T06:13:44;28.00;99.90
18339;DHT22;9295;44.484;11.240;2023-07-13T06:16:13;28.20;99.90
18339;DHT22;9295;44.484;11.240;2023-07-13T06:18:42;28.20;99.90
18339;DHT22;9295;44.484;11.240;2023-07-13T06:21:14;28.10;99.90
18339;DHT22;9295;44.484;11.240;2023-07-13T06:23:43;28.20;99.90
18339;DHT22;9295;44.484;11.240;2023-07-13T06:26:13;28.20;99.90
18339;DHT22;9295;44.484;11.240;2023-07-13T06:28:42;28.10;99.90
18339;DHT22;9295;44.484;11.240;2023-07-13T06:31:12;28.10;99.90
18339;DHT22;9295;44.484;11.240;2023-07-13T06:33:43;28.20;99.90
18339;DHT22;9295;44.484;11.240;2023-07-13T06:36:15;28.20;99.90
18339;DHT22;9295;44.484;11.240;2023-07-13T06:38:45;28.50;99.90
18339;DHT22;9295;44.484;11.240;2023-07-13T06:41:14;28.70;99.90
18339;DHT22;9295;44.484;11.240;2023-07-13T06:43:43;29.00;99.90
18339;DHT22;9295;44.484;11.240;2023-07-13T06:46:11;29.00;99.90
18339;DHT22;9295;44.484;11.240;2023-07-13T06:48:41;28.90;99.90
18339;DHT22;9295;44.484;11.240;2023-07-13T06:51:10;28.80;99.90
18339;DHT22;9295;44.484;11.240;2023-07-13T06:53:40;28.80;99.90
18339;DHT22;9295;44.484;11.240;2023-07-13T06:56:10;28.90;99.90
18339;DHT22;9295;44.484;11.240;2023-07-13T06:58:39;29.10;99.90
18339;DHT22;9295;44.484;11.240;2023-07-13T07:01:09;29.20;99.90
18339;DHT22;9295;44.484;11.240;2023-07-13T07:03:38;29.10;99.90
18339;DHT22;9295;44.484;11.240;2023-07-13T07:06:15;29.00;99.90
18339;DHT22;9295;44.484;11.240;2023-07-13T07:08:46;29.00;99.90
18339;DHT22;9295;44.484;11.240;2023-07-13T07:11:18;29.20;99.90
18339;DHT22;9295;44.484;11.240;2023-07-13T07:13:47;29.30;99.90
18339;DHT22;9295;44.484;11.240;2023-07-13T07:16:16;29.30;99.90
18339;DHT22;9295;44.484;11.240;2023-07-13T07:18:45;29.40;99.90
18339;DHT22;9295;44.484;11.240;2023-07-13T07:21:14;29.30;99.90
18339;DHT22;9295;44.484;11.240;2023-07-13T07:23:45;29.50;99.90
18339;DHT22;9295;44.484;11.240;2023-07-13T07:26:14;29.50;99.90
18339;DHT22;9295;44.484;11.240;2023-07-13T07:28:42;29.60;99.90
18339;DHT22;9295;44.484;11.240;2023-07-13T07:31:16;29.60;99.90
18339;DHT22;9295;44.484;11.240;2023-07-13T07:33:47;29.60;99.90
18339;DHT22;9295;44.484;11.240;2023-07-13T07:36:17;29.60;99.90
18339;DHT22;9295;44.484;11.240;2023-07-13T07:38:50;29.80;99.90
18339;DHT22;9295;44.484;11.240;2023-07-13T07:41:18;29.70;99.90
18339;DHT22;9295;44.484;11.240;2023-07-13T07:43:50;29.80;99.90
18339;DHT22;9295;44.484;11.240;2023-07-13T07:46:18;29.90;99.90
18339;DHT22;9295;44.484;11.240;2023-07-13T07:48:50;30.00;99.90
18339;DHT22;9295;44.484;11.240;2023-07-13T07:51:18;30.30;99.90
18339;DHT22;9295;44.484;11.240;2023-07-13T07:53:47;30.60;99.90
18339;DHT22;9295;44.484;11.240;2023-07-13T07:56:17;30.30;99.90
18339;DHT22;9295;44.484;11.240;2023-07-13T07:58:51;30.30;99.90
18339;DHT22;9295;44.484;11.240;2023-07-13T08:01:22;30.40;99.90
18339;DHT22;9295;44.484;11.240;2023-07-13T08:03:59;30.40;99.90
18339;DHT22;9295;44.484;11.240;2023-07-13T08:06:32;30.10;99.90
18339;DHT22;9295;44.484;11.240;2023-07-13T08:09:04;30.10;99.90
18339;DHT22;9295;44.484;11.240;2023-07-13T08:11:34;30.50;99.90
18339;DHT22;9295;44.484;11.240;2023-07-13T08:14:06;30.80;99.90
18339;DHT22;9295;44.484;11.240;2023-07-13T08:16:36;30.80;99.90
18339;DHT22;9295;44.484;11.240;2023-07-13T08:19:05;30.20;99.90
18339;DHT22;9295;44.484;11.240;2023-07-13T08:21:34;30.00;99.90
18339;DHT22;9295;44.484;11.240;2023-07-13T08:24:06;29.60;99.90
18339;DHT22;9295;44.484;11.240;2023-07-13T08:26:36;29.60;99.90
18339;DHT22;9295;44.484;11.240;2023-07-13T08:29:06;30.00;99.90
18339;DHT22;9295;44.484;11.240;2023-07-13T08:31:35;30.20;99.90
18339;DHT22;9295;44.484;11.240;2023-07-13T08:34:05;29.80;99.90
18339;DHT22;9295;44.484;11.240;2023-07-13T08:36:35;29.50;99.90
18339;DHT22;9295;44.484;11.240;2023-07-13T08:39:04;29.50;99.90
18339;DHT22;9295;44.484;11.240;2023-07-13T08:41:36;29.30;99.90
18339;DHT22;9295;44.484;11.240;2023-07-13T08:44:07;29.20;99.90
18339;DHT22;9295;44.484;11.240;2023-07-13T08:46:47;29.20;99.90
18339;DHT22;9295;44.484;11.240;2023-07-13T08:49:21;29.20;99.90
18339;DHT22;9295;44.484;11.240;2023-07-13T08:51:53;29.20;99.90
18339;DHT22;9295;44.484;11.240;2023-07-13T08:54:28;29.30;99.90
18339;DHT22;9295;44.484;11.240;2023-07-13T08:57:03;29.30;99.90
18339;DHT22;9295;44.484;11.240;2023-07-13T08:59:37;29.10;99.90
18339;DHT22;9295;44.484;11.240;2023-07-13T09:02:23;28.90;99.90
18339;DHT22;9295;44.484;11.240;2023-07-13T09:04:56;28.80;99.90
18339;DHT22;9295;44.484;11.240;2023-07-13T09:07:41;28.80;99.90
18339;DHT22;9295;44.484;11.240;2023-07-13T09:10:19;28.70;99.90
18339;DHT22;9295;44.484;11.240;2023-07-13T09:13:01;28.50;99.90
18339;DHT22;9295;44.484;11.240;2023-07-13T09:15:37;28.60;99.90
18339;DHT22;9295;44.484;11.240;2023-07-13T09:18:11;28.70;99.90
18339;DHT22;9295;44.484;11.240;2023-07-13T09:20:46;28.70;99.90
18339;DHT22;9295;44.484;11.240;2023-07-13T09:23:19;28.60;99.90
18339;DHT22;9295;44.484;11.240;2023-07-13T09:25:50;28.50;99.90
18339;DHT22;9295;44.484;11.240;2023-07-13T09:28:27;28.50;99.90
18339;DHT22;9295;44.484;11.240;2023-07-13T09:31:01;28.40;99.90
18339;DHT22;9295;44.484;11.240;2023-07-13T09:33:31;28.20;99.90
18339;DHT22;9295;44.484;11.240;2023-07-13T09:36:18;27.90;99.90
18339;DHT22;9295;44.484;11.240;2023-07-13T09:38:48;27.70;99.90
18339;DHT22;9295;44.484;11.240;2023-07-13T09:41:23;27.40;99.90
18339;DHT22;9295;44.484;11.240;2023-07-13T09:44:11;27.20;99.90
18339;DHT22;9295;44.484;11.240;2023-07-13T09:46:45;26.90;99.90
18339;DHT22;9295;44.484;11.240;2023-07-13T09:49:15;26.30;99.90
18339;DHT22;9295;44.484;11.240;2023-07-13T09:51:43;25.60;99.90
18339;DHT22;9295;44.484;11.240;2023-07-13T09:54:20;25.10;99.90
18339;DHT22;9295;44.484;11.240;2023-07-13T09:56:54;24.70;99.90
18339;DHT22;9295;44.484;11.240;2023-07-13T09:59:28;25.00;99.90
18339;DHT22;9295;44.484;11.240;2023-07-13T10:02:00;25.10;99.90
18339;DHT22;9295;44.484;11.240;2023-07-13T10:04:31;25.40;99.90
18339;DHT22;9295;44.484;11.240;2023-07-13T10:07:07;25.60;99.90
18339;DHT22;9295;44.484;11.240;2023-07-13T10:09:55;26.00;99.90
18339;DHT22;9295;44.484;11.240;2023-07-13T10:12:24;26.20;99.90
18339;DHT22;9295;44.484;11.240;2023-07-13T10:14:56;26.10;99.90
18339;DHT22;9295;44.484;11.240;2023-07-13T10:17:43;26.10;99.90
18339;DHT22;9295;44.484;11.240;2023-07-13T10:20:12;26.10;99.90
18339;DHT22;9295;44.484;11.240;2023-07-13T10:22:45;26.00;99.90
18339;DHT22;9295;44.484;11.240;2023-07-13T10:25:19;26.10;99.90
18339;DHT22;9295;44.484;11.240;2023-07-13T10:27:51;26.40;99.90
18339;DHT22;9295;44.484;11.240;2023-07-13T10:30:27;26.90;99.90
18339;DHT22;9295;44.484;11.240;2023-07-13T10:32:58;27.30;99.90
18339;DHT22;9295;44.484;11.240;2023-07-13T10:35:32;27.50;99.90
18339;DHT22;9295;44.484;11.240;2023-07-13T10:38:05;27.70;99.90
18339;DHT22;9295;44.484;11.240;2023-07-13T10:40:37;28.00;99.90
18339;DHT22;9295;44.484;11.240;2023-07-13T10:43:13;28.20;99.90
18339;DHT22;9295;44.484;11.240;2023-07-13T10:45:46;28.40;99.90
18339;DHT22;9295;44.484;11.240;2023-07-13T10:48:17;28.50;99.90
18339;DHT22;9295;44.484;11.240;2023-07-13T10:50:50;28.60;99.90
18339;DHT22;9295;44.484;11.240;2023-07-13T10:53:21;28.80;99.90
18339;DHT22;9295;44.484;11.240;2023-07-13T10:55:59;28.90;99.90
18339;DHT22;9295;44.484;11.240;2023-07-13T10:58:32;29.10;99.90
18339;DHT22;9295;44.484;11.240;2023-07-13T11:01:08;29.40;99.90
18339;DHT22;9295;44.484;11.240;2023-07-13T11:03:46;29.60;99.90
18339;DHT22;9295;44.484;11.240;2023-07-13T11:06:37;29.60;99.90
18339;DHT22;9295;44.484;11.240;2023-07-13T11:09:24;29.40;99.90
18339;DHT22;9295;44.484;11.240;2023-07-13T11:11:59;29.40;99.90
18339;DHT22;9295;44.484;11.240;2023-07-13T11:14:30;29.40;99.90
18339;DHT22;9295;44.484;11.240;2023-07-13T11:17:24;29.40;99.90
18339;DHT22;9295;44.484;11.240;2023-07-13T11:19:54;29.20;99.90
18339;DHT22;9295;44.484;11.240;2023-07-13T11:22:44;29.10;99.90
18339;DHT22;9295;44.484;11.240;2023-07-13T11:25:26;29.10;99.90
18339;DHT22;9295;44.484;11.240;2023-07-13T11:28:15;29.00;99.90
18339;DHT22;9295;44.484;11.240;2023-07-13T11:30:47;29.00;99.90
18339;DHT22;9295;44.484;11.240;2023-07-13T11:33:22;29.00;99.90
18339;DHT22;9295;44.484;11.240;2023-07-13T11:35:59;29.00;99.90
18339;DHT22;9295;44.484;11.240;2023-07-13T11:38:31;29.10;99.90
18339;DHT22;9295;44.484;11.240;2023-07-13T11:41:07;29.20;99.90
18339;DHT22;9295;44.484;11.240;2023-07-13T11:43:40;29.40;99.90
18339;DHT22;9295;44.484;11.240;2023-07-13T11:46:13;29.40;99.90
18339;DHT22;9295;44.484;11.240;2023-07-13T11:48:45;29.30;99.90
18339;DHT22;9295;44.484;11.240;2023-07-13T11:51:21;29.20;99.90
18339;DHT22;9295;44.484;11.240;2023-07-13T11:53:53;29.30;99.90
18339;DHT22;9295;44.484;11.240;2023-07-13T11:56:25;29.40;99.90
18339;DHT22;9295;44.484;11.240;2023-07-13T11:58:56;29.50;99.90
18339;DHT22;9295;44.484;11.240;2023-07-13T12:01:28;29.50;99.90
18339;DHT22;9295;44.484;11.240;2023-07-13T12:04:03;29.30;99.90
18339;DHT22;9295;44.484;11.240;2023-07-13T12:06:36;29.20;99.90
18339;DHT22;9295;44.484;11.240;2023-07-13T12:09:12;29.10;99.90
18339;DHT22;9295;44.484;11.240;2023-07-13T12:11:43;29.10;99.90
18339;DHT22;9295;44.484;11.240;2023-07-13T12:14:14;29.00;99.90
18339;DHT22;9295;44.484;11.240;2023-07-13T12:16:44;29.00;99.90
18339;DHT22;9295;44.484;11.240;2023-07-13T12:19:18;29.00;99.90
18339;DHT22;9295;44.484;11.240;2023-07-13T12:21:53;29.20;99.90
18339;DHT22;9295;44.484;11.240;2023-07-13T12:24:22;29.50;99.90
18339;DHT22;9295;44.484;11.240;2023-07-13T12:26:53;29.50;99.90
18339;DHT22;9295;44.484;11.240;2023-07-13T12:29:22;29.60;99.90
18339;DHT22;9295;44.484;11.240;2023-07-13T12:31:51;29.70;99.90
18339;DHT22;9295;44.484;11.240;2023-07-13T12:34:23;29.60;99.90
18339;DHT22;9295;44.484;11.240;2023-07-13T12:36:53;29.60;99.90
18339;DHT22;9295;44.484;11.240;2023-07-13T12:39:25;29.70;99.90
18339;DHT22;9295;44.484;11.240;2023-07-13T12:42:13;29.90;99.90
18339;DHT22;9295;44.484;11.240;2023-07-13T12:44:42;29.80;99.90
18339;DHT22;9295;44.484;11.240;2023-07-13T12:47:13;30.00;99.90
18339;DHT22;9295;44.484;11.240;2023-07-13T12:49:49;30.10;99.90
18339;DHT22;9295;44.484;11.240;2023-07-13T12:52:21;30.20;99.90
18339;DHT22;9295;44.484;11.240;2023-07-13T12:54:54;30.30;99.90
18339;DHT22;9295;44.484;11.240;2023-07-13T12:57:38;30.30;99.90
18339;DHT22;9295;44.484;11.240;2023-07-13T13:00:23;30.20;99.90
18339;DHT22;9295;44.484;11.240;2023-07-13T13:02:54;30.20;99.90
18339;DHT22;9295;44.484;11.240;2023-07-13T13:05:43;30.30;99.90
18339;DHT22;9295;44.484;11.240;2023-07-13T13:08:13;30.30;99.90
18339;DHT22;9295;44.484;11.240;2023-07-13T13:10:42;30.40;99.90
18339;DHT22;9295;44.484;11.240;2023-07-13T13:13:12;30.40;99.90
18339;DHT22;9295;44.484;11.240;2023-07-13T13:15:41;30.70;99.90
18339;DHT22;9295;44.484;11.240;2023-07-13T13:18:15;30.80;99.90
18339;DHT22;9295;44.484;11.240;2023-07-13T13:20:47;30.90;99.90
18339;DHT22;9295;44.484;11.240;2023-07-13T13:23:18;31.00;99.90
18339;DHT22;9295;44.484;11.240;2023-07-13T13:25:50;31.10;99.90
18339;DHT22;9295;44.484;11.240;2023-07-13T13:28:20;31.20;99.90
18339;DHT22;9295;44.484;11.240;2023-07-13T13:30:51;31.20;99.90
18339;DHT22;9295;44.484;11.240;2023-07-13T13:33:21;31.20;99.90
18339;DHT22;9295;44.484;11.240;2023-07-13T13:35:51;31.00;99.90
18339;DHT22;9295;44.484;11.240;2023-07-13T13:38:25;30.90;99.90
18339;DHT22;9295;44.484;11.240;2023-07-13T13:40:54;30.90;99.90
18339;DHT22;9295;44.484;11.240;2023-07-13T13:43:24;31.10;99.90
18339;DHT22;9295;44.484;11.240;2023-07-13T13:45:56;31.20;99.90
18339;DHT22;9295;44.484;11.240;2023-07-13T13:48:29;31.20;99.90
18339;DHT22;9295;44.484;11.240;2023-07-13T13:51:01;31.30;99.90
18339;DHT22;9295;44.484;11.240;2023-07-13T13:53:34;31.30;99.90
18339;DHT22;9295;44.484;11.240;2023-07-13T13:56:04;31.50;99.90
18339;DHT22;9295;44.484;11.240;2023-07-13T13:58:37;31.40;99.90
18339;DHT22;9295;44.484;11.240;2023-07-13T14:01:12;31.40;99.90
18339;DHT22;9295;44.484;11.240;2023-07-13T14:03:41;31.40;99.90
18339;DHT22;9295;44.484;11.240;2023-07-13T14:06:14;31.10;99.90
18339;DHT22;9295;44.484;11.240;2023-07-13T14:08:46;31.00;99.90
18339;DHT22;9295;44.484;11.240;2023-07-13T14:11:17;30.90;99.90
18339;DHT22;9295;44.484;11.240;2023-07-13T14:13:49;30.70;99.90
18339;DHT22;9295;44.484;11.240;2023-07-13T14:16:23;30.80;99.90
18339;DHT22;9295;44.484;11.240;2023-07-13T14:18:56;30.90;99.90
18339;DHT22;9295;44.484;11.240;2023-07-13T14:21:30;31.20;99.90
18339;DHT22;9295;44.484;11.240;2023-07-13T14:23:59;31.30;99.90
18339;DHT22;9295;44.484;11.240;2023-07-13T14:26:28;31.40;99.90
18339;DHT22;9295;44.484;11.240;2023-07-13T14:28:58;31.60;99.90
18339;DHT22;9295;44.484;11.240;2023-07-13T14:31:28;31.70;99.90
18339;DHT22;9295;44.484;11.240;2023-07-13T14:33:57;31.70;99.90
18339;DHT22;9295;44.484;11.240;2023-07-13T14:36:29;31.50;99.90
18339;DHT22;9295;44.484;11.240;2023-07-13T14:39:01;31.30;99.90
18339;DHT22;9295;44.484;11.240;2023-07-13T14:41:34;31.30;99.90
18339;DHT22;9295;44.484;11.240;2023-07-13T14:44:11;31.20;99.90
18339;DHT22;9295;44.484;11.240;2023-07-13T14:46:41;31.20;99.90
18339;DHT22;9295;44.484;11.240;2023-07-13T14:49:16;31.20;99.90
18339;DHT22;9295;44.484;11.240;2023-07-13T14:51:49;31.10;99.90
18339;DHT22;9295;44.484;11.240;2023-07-13T14:54:20;31.10;99.90
18339;DHT22;9295;44.484;11.240;2023-07-13T14:56:49;31.10;99.90
18339;DHT22;9295;44.484;11.240;2023-07-13T14:59:18;31.10;99.90
18339;DHT22;9295;44.484;11.240;2023-07-13T15:01:49;31.00;99.90
18339;DHT22;9295;44.484;11.240;2023-07-13T15:04:18;30.90;99.90
18339;DHT22;9295;44.484;11.240;2023-07-13T15:06:56;30.80;99.90
18339;DHT22;9295;44.484;11.240;2023-07-13T15:09:26;30.80;99.90
18339;DHT22;9295;44.484;11.240;2023-07-13T15:11:57;30.80;99.90
18339;DHT22;9295;44.484;11.240;2023-07-13T15:14:26;30.70;99.90
18339;DHT22;9295;44.484;11.240;2023-07-13T15:16:58;30.70;99.90
18339;DHT22;9295;44.484;11.240;2023-07-13T15:19:28;30.70;99.90
18339;DHT22;9295;44.484;11.240;2023-07-13T15:21:58;30.80;99.90
18339;DHT22;9295;44.484;11.240;2023-07-13T15:24:28;30.80;99.90
18339;DHT22;9295;44.484;11.240;2023-07-13T15:27:00;30.90;99.90
18339;DHT22;9295;44.484;11.240;2023-07-13T15:29:28;30.80;99.90
18339;DHT22;9295;44.484;11.240;2023-07-13T15:31:57;30.70;99.90
18339;DHT22;9295;44.484;11.240;2023-07-13T15:34:26;30.70;99.90
18339;DHT22;9295;44.484;11.240;2023-07-13T15:36:55;30.60;99.90
18339;DHT22;9295;44.484;11.240;2023-07-13T15:39:24;30.70;99.90
18339;DHT22;9295;44.484;11.240;2023-07-13T15:41:53;30.80;99.90
18339;DHT22;9295;44.484;11.240;2023-07-13T15:44:26;31.00;99.90
18339;DHT22;9295;44.484;11.240;2023-07-13T15:46:55;31.30;99.90
18339;DHT22;9295;44.484;11.240;2023-07-13T15:49:24;31.40;99.90
18339;DHT22;9295;44.484;11.240;2023-07-13T15:51:53;31.60;99.90
18339;DHT22;9295;44.484;11.240;2023-07-13T15:54:24;31.70;99.90
18339;DHT22;9295;44.484;11.240;2023-07-13T15:56:55;31.80;99.90